No78 Oyarikimaru — JL6479 — position and weather

sailwx.info

Track history (hours):
 
Tides and Currents Weather Stations Pressure Air Temp Water Temp Dewpoint Dewpoint Depression Visibility Wind Speed Wind Dir Waves Ship Positions

No78 Oyarikimaru

Last reported at 2018-Jun-16 02:09 UTC. Time now 2018-Jun-21 14:27 UTC.
Position N 35°07' E 139°42'.

Length 86 m; draft 3.2 m.

Type: Cargo ship. MMSI: 431500538.

Date/timePositionNaut miles runAvg speedWind from/ knotsBaromVisibWave heightAir tempDewpointWater temp
2018-Jun-16 02:09N 35°07' E 139°42'212.9
2018-Jun-16 02:00N 35°08' E 139°43'613.2
2018-Jun-16 01:30N 35°14' E 139°46'3 6.6
2018-Jun-16 01:00N 35°17' E 139°43'0 0.0
2018-Jun-16 00:31N 35°17' E 139°43'0 0.0
2018-Jun-16 00:01N 35°17' E 139°43'0 0.0
2018-Jun-15 23:31N 35°17' E 139°43'0 0.0
2018-Jun-15 23:01N 35°17' E 139°43'0 0.0
2018-Jun-15 22:30N 35°17' E 139°43'2 3.5
2018-Jun-15 22:01N 35°18' E 139°45'4 8.3
2018-Jun-15 21:31N 35°14' E 139°47'7 8.5
2018-Jun-15 20:42N 35°07' E 139°45'2 8.3
2018-Jun-15 20:24N 35°05' E 139°44'  
2018-Jun-13 03:10N 35°07' E 139°40'212.8
2018-Jun-13 03:00N 35°08' E 139°42'612.3
2018-Jun-13 02:30N 35°13' E 139°46'4 8.3
2018-Jun-13 01:58N 35°17' E 139°43'0 0.7
2018-Jun-13 01:30N 35°17' E 139°43'0 0.0
2018-Jun-13 01:00N 35°17' E 139°43'0 0.0
2018-Jun-13 00:30N 35°17' E 139°43'0 0.1
2018-Jun-13 00:00N 35°17' E 139°43'0 0.0
2018-Jun-12 23:30N 35°17' E 139°43'0 0.0
2018-Jun-12 23:01N 35°17' E 139°43'2 4.0
2018-Jun-12 22:30N 35°17' E 139°46'4 8.5
2018-Jun-12 21:59N 35°13' E 139°47'  
2018-Jun-08 02:06N 35°06' E 139°41'211.5
2018-Jun-08 01:56N 35°08' E 139°42'511.3
2018-Jun-08 01:30N 35°12' E 139°46'510.1
2018-Jun-08 01:00N 35°17' E 139°45'1 2.9
2018-Jun-08 00:30N 35°17' E 139°43'0 0.0
2018-Jun-08 00:00N 35°17' E 139°43'0 0.0
2018-Jun-07 23:30N 35°17' E 139°43'0 0.0
2018-Jun-07 23:00N 35°17' E 139°43'0 0.0
2018-Jun-07 22:30N 35°17' E 139°43'2 4.3
2018-Jun-07 22:01N 35°19' E 139°44'510.2
2018-Jun-07 21:30N 35°14' E 139°47'510.4
2018-Jun-07 20:59N 35°09' E 139°46'  
Track history (hours):
 
Tides and Currents Weather Stations Pressure Air Temp Water Temp Dewpoint Dewpoint Depression Visibility Wind Speed Wind Dir Waves Ship Positions

No78 Oyarikimaru

Last reported at 2018-Jun-16 02:09 UTC. Time now 2018-Jun-21 14:27 UTC.
Position N 35°07' E 139°42'.

Length 86 m; draft 3.2 m.

Type: Cargo ship. MMSI: 431500538.

Date/timePositionNaut miles runAvg speedWind from/ knotsBaromVisibWave heightAir tempDewpointWater temp
2018-Jun-16 02:09N 35°07' E 139°42'212.9
2018-Jun-16 02:00N 35°08' E 139°43'613.2
2018-Jun-16 01:30N 35°14' E 139°46'3 6.6
2018-Jun-16 01:00N 35°17' E 139°43'0 0.0
2018-Jun-16 00:31N 35°17' E 139°43'0 0.0
2018-Jun-16 00:01N 35°17' E 139°43'0 0.0
2018-Jun-15 23:31N 35°17' E 139°43'0 0.0
2018-Jun-15 23:01N 35°17' E 139°43'0 0.0
2018-Jun-15 22:30N 35°17' E 139°43'2 3.5
2018-Jun-15 22:01N 35°18' E 139°45'4 8.3
2018-Jun-15 21:31N 35°14' E 139°47'7 8.5
2018-Jun-15 20:42N 35°07' E 139°45'2 8.3
2018-Jun-15 20:24N 35°05' E 139°44'  
2018-Jun-13 03:10N 35°07' E 139°40'212.8
2018-Jun-13 03:00N 35°08' E 139°42'612.3
2018-Jun-13 02:30N 35°13' E 139°46'4 8.3
2018-Jun-13 01:58N 35°17' E 139°43'0 0.7
2018-Jun-13 01:30N 35°17' E 139°43'0 0.0
2018-Jun-13 01:00N 35°17' E 139°43'0 0.0
2018-Jun-13 00:30N 35°17' E 139°43'0 0.1
2018-Jun-13 00:00N 35°17' E 139°43'0 0.0
2018-Jun-12 23:30N 35°17' E 139°43'0 0.0
2018-Jun-12 23:01N 35°17' E 139°43'2 4.0
2018-Jun-12 22:30N 35°17' E 139°46'4 8.5
2018-Jun-12 21:59N 35°13' E 139°47'  
2018-Jun-08 02:06N 35°06' E 139°41'211.5
2018-Jun-08 01:56N 35°08' E 139°42'511.3
2018-Jun-08 01:30N 35°12' E 139°46'510.1
2018-Jun-08 01:00N 35°17' E 139°45'1 2.9
2018-Jun-08 00:30N 35°17' E 139°43'0 0.0
2018-Jun-08 00:00N 35°17' E 139°43'0 0.0
2018-Jun-07 23:30N 35°17' E 139°43'0 0.0
2018-Jun-07 23:00N 35°17' E 139°43'0 0.0
2018-Jun-07 22:30N 35°17' E 139°43'2 4.3
2018-Jun-07 22:01N 35°19' E 139°44'510.2
2018-Jun-07 21:30N 35°14' E 139°47'510.4
2018-Jun-07 20:59N 35°09' E 139°46'  

Dump ship's entire track history